X  Zatvori METAR podaci zračne luke     EDVE Braunschweig-Wolfsburg Airport
Temperatura
15°C Temperatura
10°C Točka rosišta
72% Vlaga



Vjetar
3 KM/S
2 MPS
1 M/S
2 Čvorovi



Tišina
S
Trenutna situacija

Vedro Vedro
Tlak zraka 1023.92 (hPa) - 30.24 (inHg)
Vidljivost 6.2 (milje) - 10 (km)
Zračna luka
Kôd zračne luke EDVE

Lokacija: Braunschweig-Wolfsburg Airport
Udaljenost: 35 (km)

Metar:
EDVE 110120Z AUTO VRB02KT 9999 NCD 15/10 Q1024

Vrijeme: 11-08-2022 03:20 CEST